Date,TemperatureHighF,TemperatureAvgF,TemperatureLowF,DewpointHighF,DewpointAvgF,DewpointLowF,HumidityHigh,HumidityAvg,HumidityLow,PressureMaxIn,PressureMinIn,WindSpeedMaxMPH,WindSpeedAvgMPH,GustSpeedMaxMPH,PrecipitationSumIn
2012-1-1,64.7,54.0,42.2,59.0,38.1,19.0,85,57,36,30.41,29.91,10,3,19,0.00
2012-1-2,42.1,37.6,31.2,19.0,13.1,6.0,50,37,25,30.49,30.38,12,3,19,0.00
2012-1-3,42.6,30.1,17.7,21.0,11.6,6.0,87,51,23,30.61,30.39,6,1,12,0.00
2012-1-4,55.2,44.0,32.1,37.0,34.1,30.0,94,70,48,30.23,30.14,6,1,14,0.00
2012-1-5,61.5,44.3,27.0,37.0,30.2,26.0,97,64,27,30.28,30.05,4,1,9,0.00
2012-1-6,69.6,53.7,32.0,57.0,45.1,30.0,95,74,52,30.08,29.91,11,3,16,0.00
2012-1-7,59.8,54.5,46.4,57.0,47.7,32.0,96,79,49,30.14,29.93,5,1,10,0.00
2012-1-8,51.4,49.0,44.9,44.0,38.6,32.0,82,68,50,30.18,30.10,4,1,9,0.01
2012-1-9,55.9,49.2,45.1,46.0,42.8,40.0,86,79,68,30.20,30.07,5,1,7,0.00
2012-1-10,57.4,52.0,48.2,53.0,46.2,39.0,99,81,71,30.09,29.64,5,1,11,0.56
2012-1-11,53.2,47.5,44.7,53.0,46.8,44.0,100,97,93,29.68,29.55,5,1,11,0.01
2012-1-12,46.3,33.7,26.8,45.0,26.7,16.0,96,76,55,30.07,29.67,11,3,19,0.00
2012-1-13,41.7,31.0,23.3,20.0,17.0,15.0,79,58,34,30.22,30.05,7,1,13,0.00
2012-1-14,56.4,40.9,21.4,30.0,25.7,18.0,89,58,34,30.34,30.05,11,2,16,0.00
2012-1-15,55.4,41.6,23.8,35.0,27.2,21.0,88,60,35,30.47,30.21,8,2,15,0.00
2012-1-16,67.1,60.4,52.5,58.0,49.4,35.0,79,68,45,30.21,29.93,14,6,21,0.00
2012-1-17,73.1,55.8,30.6,63.0,47.5,25.0,84,74,57,30.30,29.87,13,5,23,0.09
2012-1-18,43.4,32.6,24.2,26.0,23.0,20.0,88,69,45,30.36,30.11,5,1,9,0.00
2012-1-19,60.3,45.0,26.3,49.0,35.3,23.0,97,72,39,30.10,29.88,9,2,14,0.02
2012-1-20,66.1,52.5,39.5,59.0,48.1,36.0,98,85,71,29.97,29.74,5,1,10,0.00
2012-1-21,48.8,36.5,33.5,45.0,34.0,30.0,95,90,85,30.12,29.84,8,3,13,0.02
2012-1-22,69.8,52.6,36.7,65.0,50.8,35.0,98,93,84,30.04,29.61,13,4,25,0.45
2012-1-23,60.4,49.9,34.4,58.0,40.9,33.0,95,73,54,30.10,29.67,11,2,16,0.00
2012-1-24,60.2,41.4,27.8,40.0,32.1,27.0,100,74,34,30.28,30.10,4,0,7,0.00
2012-1-25,51.5,47.6,42.1,51.0,43.2,33.0,98,85,62,30.19,29.76,5,1,9,0.55
2012-1-26,57.5,49.7,42.0,57.0,49.0,41.0,100,97,93,29.86,29.66,5,1,11,0.44
2012-1-27,58.3,44.2,33.7,43.0,38.4,33.0,100,82,48,30.08,29.86,3,0,6,0.01
2012-1-28,49.8,42.0,26.3,41.0,29.2,21.0,92,64,33,30.41,30.00,11,2,17,0.00
2012-1-29,58.1,42.3,24.1,31.0,25.2,20.0,96,57,24,30.42,30.30,12,2,13,0.00
2012-1-30,65.2,51.6,38.4,30.0,26.2,22.0,60,40,21,30.33,30.19,10,3,16,0.00
2012-1-31,71.2,60.0,51.4,55.0,46.4,28.0,74,62,36,30.21,30.07,12,4,17,0.00
2012-2-1,68.6,58.8,49.8,62.0,55.7,49.0,100,90,68,30.13,30.01,7,1,9,0.65
2012-2-2,68.5,53.8,39.7,53.0,42.3,34.0,100,70,32,30.28,30.13,5,1,10,0.01
2012-2-3,59.0,53.1,46.0,54.0,43.6,33.0,91,71,48,30.25,30.09,7,2,12,0.08
2012-2-4,61.3,57.1,49.0,60.0,55.5,45.0,99,94,86,30.12,30.00,5,1,12,0.75
2012-2-5,49.5,45.0,40.7,44.0,41.6,39.0,99,88,80,30.27,30.13,5,1,9,0.00
2012-2-6,54.9,44.2,31.9,42.0,36.1,30.0,95,76,44,30.32,30.20,4,1,8,0.00
2012-2-7,57.9,42.2,27.5,41.0,34.6,27.0,99,78,42,30.29,30.21,4,1,7,0.01
2012-2-8,45.8,42.3,36.6,40.0,36.5,32.0,94,80,70,30.41,30.27,6,2,9,0.00
2012-2-9,41.3,36.8,29.1,33.0,29.8,27.0,92,77,61,30.40,30.23,3,0,4,0.00
2012-2-10,41.1,36.0,28.1,40.0,33.0,26.0,97,89,72,30.22,30.06,6,1,14,0.06
2012-2-11,34.9,27.9,20.8,29.0,15.5,10.0,79,61,41,30.58,30.15,10,3,16,0.00
2012-2-12,39.9,28.8,20.5,16.0,10.7,4.0,80,50,23,30.62,30.37,4,1,7,0.00
2012-2-13,40.7,31.6,19.2,35.0,21.7,15.0,96,70,37,30.37,29.93,6,1,9,0.31
2012-2-14,47.6,40.3,32.2,41.0,37.1,31.0,98,89,70,30.10,29.90,3,0,7,0.02
2012-2-15,55.7,45.7,34.1,51.0,44.0,33.0,99,94,77,30.14,29.96,5,1,9,0.51
2012-2-16,54.2,50.1,41.6,53.0,47.1,40.0,98,89,76,30.22,29.99,8,1,9,0.02
2012-2-17,57.7,45.5,36.2,42.0,39.6,35.0,98,82,47,30.23,30.09,4,1,7,0.01
2012-2-18,52.3,47.0,40.1,40.0,38.8,35.0,91,74,59,30.10,29.90,5,1,12,0.00
2012-2-19,51.1,41.9,29.8,39.0,34.2,28.0,94,76,46,30.16,29.89,7,2,11,0.34
2012-2-20,59.1,43.2,25.3,35.0,27.3,23.0,98,61,26,30.25,29.94,12,2,15,0.00
2012-2-21,63.3,53.0,44.2,46.0,37.9,32.0,91,60,33,30.07,29.91,11,3,19,0.04
2012-2-22,65.5,57.4,49.4,58.0,50.7,33.0,94,79,49,29.91,29.54,9,3,16,0.31
2012-2-23,79.8,66.1,51.2,61.0,53.9,44.0,93,68,43,29.57,29.29,16,4,25,0.00
2012-2-24,60.8,49.3,35.9,44.0,30.4,23.0,64,49,33,30.23,29.59,11,2,18,0.00
2012-2-25,55.8,41.5,28.8,29.0,24.2,20.0,86,55,26,30.38,30.23,6,1,11,0.00
2012-2-26,66.7,49.5,29.4,33.0,25.9,21.0,82,44,22,30.32,30.13,8,2,14,0.00
2012-2-27,71.7,58.4,41.3,47.0,40.1,33.0,75,52,34,30.37,30.23,4,1,8,0.00
2012-2-28,74.4,60.7,46.3,64.0,50.8,38.0,95,71,52,30.31,29.94,10,3,15,0.00
2012-2-29,75.0,68.2,46.8,66.0,56.7,28.0,93,70,24,29.95,29.75,17,6,24,0.03
2012-3-1,76.6,57.5,36.6,57.0,38.2,27.0,94,56,17,29.96,29.65,7,1,10,0.00
2012-3-2,83.3,68.7,43.6,66.0,53.3,31.0,85,61,19,29.89,29.49,16,6,33,0.00
2012-3-3,59.3,45.2,31.1,36.0,27.3,16.0,94,55,22,30.03,29.88,10,2,15,0.00
2012-3-4,63.2,51.0,30.2,32.0,26.1,22.0,87,44,21,30.07,29.91,9,2,15,0.00
2012-3-5,58.2,48.7,39.5,33.0,28.0,23.0,68,47,26,30.45,30.00,9,2,17,0.00
2012-3-6,71.0,56.4,42.5,34.0,29.1,23.0,47,36,25,30.36,30.19,11,4,16,0.00
2012-3-7,73.7,64.5,54.0,58.0,47.2,33.0,70,54,39,30.28,30.09,13,5,20,0.00
2012-3-8,71.5,54.5,40.4,64.0,50.5,38.0,96,87,71,30.35,30.00,15,5,17,1.75
2012-3-9,61.1,49.9,37.6,38.0,33.2,30.0,91,56,32,30.49,30.32,6,2,14,0.00
2012-3-10,67.3,51.0,36.4,38.0,30.9,26.0,85,51,23,30.45,30.25,7,1,9,0.00
2012-3-11,66.9,57.5,41.6,60.0,47.6,37.0,96,71,51,30.27,30.08,11,2,16,0.61
2012-3-12,77.7,67.4,60.3,65.0,62.7,59.0,97,85,62,30.09,29.99,8,4,18,0.07
2012-3-13,81.0,70.4,61.6,65.0,60.9,56.0,96,75,44,30.16,30.05,6,2,12,0.00
2012-3-14,84.4,71.0,54.9,68.0,61.5,54.0,100,75,48,30.18,30.08,8,2,11,0.00
2012-3-15,84.5,73.8,65.3,66.0,61.6,57.0,89,68,40,30.19,30.06,10,2,13,0.00
2012-3-16,74.7,65.4,60.0,66.0,62.1,59.0,99,89,74,30.18,30.05,8,1,11,2.38
2012-3-17,79.9,68.7,55.9,66.0,59.3,56.0,100,75,46,30.15,30.02,6,1,12,0.01
2012-3-18,84.7,72.6,59.5,65.0,60.5,58.0,94,68,43,30.16,30.02,7,2,12,0.00
2012-3-19,84.7,74.0,65.3,63.0,58.2,51.0,86,60,34,30.06,29.89,11,2,15,0.00
2012-3-20,85.8,73.6,58.7,59.0,56.0,52.0,92,57,35,29.97,29.84,14,3,19,0.00
2012-3-21,76.2,72.5,68.5,62.0,57.7,54.0,78,60,53,29.96,29.87,14,4,19,0.00
2012-3-22,72.0,61.8,51.1,61.0,57.1,50.0,98,86,61,30.05,29.92,7,1,16,0.70
2012-3-23,71.0,63.9,58.4,60.0,53.5,47.0,96,71,43,29.95,29.86,7,2,13,0.00
2012-3-24,76.3,62.5,49.1,58.0,51.9,47.0,93,71,44,29.94,29.85,6,1,14,0.00
2012-3-25,75.7,64.3,53.6,61.0,56.8,53.0,99,79,53,30.03,29.91,8,1,11,0.00
2012-3-26,80.3,64.1,48.4,61.0,55.4,48.0,100,77,45,30.14,30.02,3,0,7,0.00
2012-3-27,85.4,66.3,52.0,58.0,54.7,51.0,98,71,35,30.13,30.00,4,1,8,0.00
2012-3-28,84.9,71.0,59.5,62.0,58.3,55.0,87,67,40,30.09,29.94,5,1,11,0.00
2012-3-29,83.9,69.9,55.7,64.0,59.3,55.0,98,72,45,29.99,29.85,4,1,8,0.00
2012-3-30,75.9,66.4,57.5,66.0,62.0,57.0,98,86,65,29.90,29.77,10,1,10,0.09
2012-3-31,87.6,72.2,59.7,69.0,64.7,60.0,100,80,45,29.86,29.76,4,1,7,0.01
2012-4-1,87.1,75.9,62.6,70.0,65.0,60.0,96,71,52,29.82,29.68,10,2,12,0.00
2012-4-2,87.6,77.0,67.4,68.0,64.5,59.0,89,67,41,29.85,29.69,9,2,11,0.00
2012-4-3,83.3,67.5,60.5,65.0,61.6,58.0,98,83,50,29.93,29.79,7,1,15,0.62
2012-4-4,81.0,68.0,59.6,65.0,61.3,59.0,100,81,53,29.89,29.68,5,1,11,0.05
2012-4-5,70.1,61.9,56.4,60.0,56.2,51.0,97,83,58,29.91,29.67,5,1,10,0.23
2012-4-6,67.1,55.2,46.4,51.0,44.9,41.0,95,71,39,30.12,29.90,7,2,12,0.00
2012-4-7,76.0,58.6,39.9,52.0,45.3,39.0,99,67,34,30.22,30.12,3,1,6,0.00
2012-4-8,70.6,58.6,47.9,52.0,48.3,44.0,93,72,40,30.29,30.16,6,1,11,0.00
2012-4-9,79.5,59.0,40.1,54.0,47.8,40.0,100,72,35,30.20,30.03,5,0,8,0.00
2012-4-10,73.4,59.7,49.4,57.0,47.4,37.0,97,70,27,30.13,30.02,5,1,11,0.25
2012-4-11,65.5,54.3,40.9,47.0,34.7,25.0,95,53,23,30.24,30.10,7,2,13,0.00
2012-4-12,68.5,50.6,34.1,46.0,36.8,32.0,97,64,31,30.28,30.11,5,1,9,0.00
2012-4-13,78.5,63.3,45.5,55.0,48.7,42.0,90,62,42,30.14,30.03,8,2,13,0.00
2012-4-14,83.0,73.5,62.0,59.0,56.0,54.0,76,56,40,30.07,29.91,11,4,15,0.00
2012-4-15,83.7,74.9,63.8,65.0,62.0,59.0,85,66,48,30.00,29.80,12,4,20,0.00
2012-4-16,76.7,61.3,55.8,65.0,55.5,52.0,96,82,58,30.20,29.83,7,1,15,0.21
2012-4-17,62.9,57.4,47.9,55.0,51.0,47.0,96,80,66,30.28,30.18,6,1,11,0.00
2012-4-18,75.8,58.5,41.4,52.0,46.0,41.0,100,69,31,30.21,30.04,6,1,10,0.00
2012-4-19,79.9,62.9,42.7,54.0,48.2,42.0,100,65,32,30.05,29.84,4,1,9,0.00
2012-4-20,80.6,64.2,51.0,61.0,56.1,49.0,97,77,48,29.91,29.75,7,2,12,0.29
2012-4-21,63.9,53.0,46.1,49.0,44.9,43.0,93,75,49,29.98,29.89,9,3,13,0.00
2012-4-22,68.5,53.1,39.2,50.0,44.3,39.0,100,75,42,30.02,29.85,9,2,13,0.02
2012-4-23,64.1,51.9,42.5,43.0,36.5,29.0,88,59,28,30.11,29.97,9,2,15,0.00
2012-4-24,77.1,60.5,39.5,50.0,43.5,39.0,97,59,29,30.01,29.76,6,1,11,0.00
2012-4-25,85.6,73.2,62.6,64.0,57.8,49.0,74,60,44,29.81,29.68,11,4,17,0.00
2012-4-26,86.1,76.8,68.6,70.0,65.7,61.0,92,69,56,29.90,29.76,7,2,14,0.12
2012-4-27,78.7,70.2,65.2,70.0,63.5,57.0,95,79,70,29.99,29.87,4,1,8,0.00
2012-4-28,86.0,74.7,63.5,66.0,63.4,61.0,95,70,44,29.99,29.88,13,3,15,0.00
2012-4-29,86.0,75.0,64.4,69.0,64.3,62.0,92,71,48,30.05,29.98,5,1,9,0.00
2012-4-30,86.7,75.2,63.7,70.0,66.2,61.0,91,75,51,30.06,29.93,10,2,13,0.00
2012-5-1,88.5,78.1,66.1,70.0,67.0,63.0,97,71,44,30.01,29.89,12,2,17,0.00
2012-5-2,90.3,77.4,68.4,70.0,67.0,64.0,90,72,51,29.99,29.90,10,2,19,0.00
2012-5-3,84.6,74.5,65.7,71.0,68.1,64.0,96,81,62,30.03,29.95,5,1,8,0.00
2012-5-4,90.8,78.7,67.9,74.0,70.3,66.0,96,77,53,30.01,29.88,6,2,10,0.00
2012-5-5,91.8,80.5,71.2,75.0,71.5,70.0,96,76,51,29.95,29.83,6,1,11,0.00
2012-5-6,93.4,80.4,67.3,72.0,69.3,62.0,99,72,46,29.96,29.80,7,1,13,0.80
2012-5-7,80.2,69.1,64.8,69.0,66.0,64.0,99,90,67,29.95,29.81,6,1,11,1.97
2012-5-8,78.1,70.2,64.9,66.0,63.4,56.0,100,81,55,29.94,29.86,5,1,8,0.00
2012-5-9,79.2,68.9,55.9,57.0,52.4,45.0,91,59,32,29.96,29.87,9,1,13,0.00
2012-5-10,79.7,64.7,49.2,57.0,51.5,47.0,99,67,37,29.98,29.91,3,1,7,0.00
2012-5-11,78.1,66.3,50.7,58.0,54.1,50.0,99,69,41,30.11,29.98,5,0,9,0.00
2012-5-12,72.3,66.2,62.5,64.0,59.5,55.0,95,79,66,30.14,30.04,6,1,9,0.11
2012-5-13,74.9,65.3,59.6,64.0,62.3,59.0,99,90,68,30.04,29.97,4,1,10,0.15
2012-5-14,80.5,65.8,53.3,62.0,58.2,53.0,100,79,51,30.04,29.95,6,1,8,0.00
2012-5-15,84.2,70.6,57.7,66.0,61.0,58.0,100,75,43,30.04,29.95,4,1,6,0.00
2012-5-16,90.0,74.7,54.9,65.0,58.8,53.0,100,64,29,30.02,29.90,4,1,9,0.00
2012-5-17,89.1,73.6,58.4,66.0,61.3,58.0,99,69,40,29.98,29.89,7,1,8,0.00
2012-5-18,91.5,76.4,59.7,67.0,62.0,56.0,99,66,32,29.98,29.89,4,1,7,0.00
2012-5-19,90.2,77.0,62.8,68.0,64.1,61.0,96,67,41,30.04,29.94,9,1,9,0.00
2012-5-20,92.4,76.9,61.1,69.0,63.7,57.0,99,67,39,30.10,29.98,4,1,12,0.00
2012-5-21,83.0,72.9,63.8,69.0,63.8,54.0,99,75,56,30.09,29.96,5,2,12,0.17
2012-5-22,79.6,66.9,54.0,56.0,51.6,46.0,95,62,31,30.01,29.87,6,1,12,0.00
2012-5-23,85.7,68.4,49.4,59.0,53.4,49.0,99,65,30,29.88,29.75,5,1,8,0.00
2012-5-24,90.3,77.6,64.2,67.0,62.2,53.0,74,60,44,29.82,29.70,7,3,15,0.00
2012-5-25,92.0,81.1,71.5,71.0,67.1,65.0,83,64,42,30.01,29.83,5,2,12,0.00
2012-5-26,93.1,80.3,65.4,72.0,67.9,65.0,97,69,43,30.11,29.99,4,1,8,0.00
2012-5-27,95.5,82.0,63.9,72.0,68.0,63.0,99,67,39,30.04,29.90,4,1,7,0.00
2012-5-28,95.4,82.3,68.0,73.0,70.8,67.0,97,71,44,29.93,29.81,3,1,7,0.00
2012-5-29,96.2,85.0,71.1,74.0,68.6,61.0,98,61,33,29.86,29.76,4,1,7,0.00
2012-5-30,89.2,74.7,61.4,69.0,65.5,61.0,99,75,49,29.89,29.80,7,1,14,0.00
2012-5-31,86.6,69.7,59.9,71.0,64.8,59.0,99,86,60,29.85,29.65,11,1,14,1.54
2012-6-1,74.4,64.1,56.7,62.0,55.4,52.0,94,75,50,29.96,29.78,7,1,10,0.00
2012-6-2,80.3,67.7,53.7,62.0,58.7,53.0,99,76,49,30.00,29.86,8,1,10,0.00
2012-6-3,92.3,76.7,62.2,76.0,68.2,60.0,98,77,55,29.91,29.76,5,1,24,0.35
2012-6-4,88.8,74.9,66.4,76.0,71.2,66.0,100,89,63,29.87,29.70,4,1,11,1.17
2012-6-5,84.6,76.1,68.4,73.0,66.5,59.0,100,75,44,29.86,29.68,8,2,12,0.00
2012-6-6,82.0,71.3,58.0,61.0,57.6,54.0,97,65,41,29.98,29.84,8,2,13,0.00
2012-6-7,83.9,71.4,56.1,60.0,56.7,54.0,92,63,39,30.03,29.95,6,1,11,0.00
2012-6-8,88.9,75.3,61.7,69.0,62.3,57.0,89,66,44,30.02,29.89,4,1,9,0.00
2012-6-9,86.9,76.1,64.6,70.0,66.9,64.0,97,75,48,29.96,29.85,10,2,14,0.00
2012-6-10,86.5,76.3,70.0,73.0,68.9,63.0,93,78,63,29.90,29.83,5,1,7,0.00
2012-6-11,90.8,74.7,66.8,78.0,71.3,65.0,98,90,64,30.05,29.80,9,2,24,0.41
2012-6-12,83.2,73.8,66.8,74.0,69.3,67.0,99,87,67,30.09,29.94,5,1,10,0.00
2012-6-13,86.0,73.7,58.9,66.0,60.7,57.0,100,68,39,30.06,29.95,4,1,8,0.00
2012-6-14,92.3,76.3,58.4,68.0,63.0,58.0,100,69,36,30.01,29.93,5,1,7,0.00
2012-6-15,92.4,80.2,65.8,72.0,68.4,65.0,98,70,45,30.04,29.92,8,1,9,0.00
2012-6-16,92.5,81.7,69.6,74.0,70.4,68.0,95,71,47,30.12,30.00,9,2,10,0.00
2012-6-17,89.7,80.0,68.9,71.0,67.8,65.0,98,69,47,30.05,29.89,6,1,10,0.17
2012-6-18,92.1,79.6,66.7,73.0,67.5,64.0,90,69,43,29.96,29.88,6,2,12,0.00
2012-6-19,92.5,81.5,71.6,70.0,65.7,62.0,82,61,37,30.05,29.95,6,2,11,0.00
2012-6-20,92.7,81.1,68.6,71.0,65.6,63.0,84,61,39,30.09,29.98,6,1,8,0.00
2012-6-21,93.0,80.1,63.7,70.0,65.6,63.0,98,65,38,30.05,29.90,5,1,9,0.10
2012-6-22,92.3,80.0,67.1,73.0,68.4,65.0,97,71,45,29.95,29.86,5,1,9,0.00
2012-6-23,94.9,81.1,65.6,67.0,63.3,58.0,90,60,30,29.95,29.86,6,1,9,0.00
2012-6-24,97.7,81.9,63.4,71.0,64.2,59.0,98,61,28,29.94,29.82,4,1,9,0.00
2012-6-25,98.5,84.5,66.0,71.0,67.7,64.0,97,62,34,29.85,29.72,6,1,9,0.00
2012-6-26,89.6,80.1,63.7,69.0,57.4,47.0,82,50,23,29.86,29.76,12,2,14,0.00
2012-6-27,98.2,77.7,55.7,68.0,58.4,53.0,97,59,24,29.96,29.86,3,1,6,0.00
2012-6-28,103.7,83.6,62.2,71.0,65.9,60.0,98,62,24,30.01,29.92,5,1,8,0.06
2012-6-29,103.9,87.5,69.8,76.0,71.0,68.0,95,63,33,29.95,29.82,5,1,9,0.00
2012-6-30,104.2,88.0,70.5,76.0,72.0,68.0,95,64,32,29.88,29.82,5,1,7,0.00
2012-7-1,101.9,88.1,73.0,77.0,73.5,72.0,95,65,40,29.98,29.88,8,1,9,0.15
2012-7-2,98.2,86.3,72.8,75.0,70.9,66.0,94,63,36,30.03,29.93,7,1,10,0.23
2012-7-3,97.7,85.1,69.8,75.0,70.9,66.0,90,65,42,30.01,29.88,6,1,10,0.00
2012-7-4,102.0,87.1,73.3,74.0,70.8,67.0,89,61,32,29.99,29.89,7,1,10,0.19
2012-7-5,103.4,88.7,74.2,76.0,72.2,67.0,91,62,33,30.00,29.88,3,1,7,0.00
2012-7-6,104.9,87.5,76.5,77.0,72.4,67.0,86,64,30,29.97,29.86,10,2,15,0.00
2012-7-7,102.3,86.6,74.5,78.0,73.5,70.0,90,68,41,29.98,29.86,6,1,9,0.00
2012-7-8,92.8,81.6,74.8,78.0,74.1,71.0,95,79,60,30.00,29.89,7,2,10,0.26
2012-7-9,89.6,77.7,71.0,76.0,72.8,70.0,98,86,59,29.99,29.87,6,1,12,0.39
2012-7-10,91.0,78.6,73.0,77.0,73.6,70.0,99,86,53,29.94,29.87,4,1,9,0.23
2012-7-11,86.4,78.2,72.4,76.0,72.2,71.0,97,83,64,29.98,29.91,5,1,8,0.00
2012-7-12,83.2,76.8,72.4,74.0,72.0,71.0,97,85,70,29.96,29.91,5,1,9,0.01
2012-7-13,88.1,75.9,72.6,75.0,72.5,71.0,98,90,59,30.04,29.94,4,1,7,0.08
2012-7-14,85.6,77.2,71.7,77.0,73.5,71.0,99,89,70,30.07,29.98,4,1,11,0.11
2012-7-15,93.0,79.8,71.1,77.0,73.7,71.0,99,83,54,30.11,29.99,7,1,9,0.00
2012-7-16,95.5,83.4,72.3,78.0,74.6,72.0,99,77,50,30.05,29.92,4,1,8,0.00
2012-7-17,97.5,85.5,73.4,78.0,74.7,72.0,98,73,46,29.99,29.86,4,1,11,0.00
2012-7-18,100.2,87.7,75.8,78.0,75.6,70.0,96,70,46,29.99,29.85,6,2,12,0.00
2012-7-19,104.1,87.8,74.4,79.0,74.8,70.0,89,68,36,30.00,29.84,5,1,10,0.00
2012-7-20,101.3,89.5,79.0,78.0,75.4,70.0,87,65,43,29.91,29.84,5,1,8,0.00
2012-7-21,94.6,84.1,74.4,78.0,74.5,72.0,95,75,50,29.98,29.89,5,1,12,0.20
2012-7-22,91.7,81.0,73.6,78.0,75.2,72.0,97,83,59,30.08,29.97,5,1,9,0.01
2012-7-23,95.8,84.8,73.9,77.0,73.8,71.0,98,73,47,30.15,30.02,5,1,9,0.01
2012-7-24,98.9,86.1,73.6,77.0,73.8,72.0,96,69,43,30.06,29.91,7,1,11,0.11
2012-7-25,99.3,87.2,76.2,76.0,73.8,72.0,89,66,43,29.96,29.83,6,1,10,0.00
2012-7-26,98.9,88.0,75.0,78.0,74.1,68.0,85,65,43,29.94,29.76,9,2,14,0.00
2012-7-27,91.1,81.0,71.7,77.0,72.5,70.0,97,77,52,29.97,29.86,3,1,8,0.00
2012-7-28,96.5,83.0,71.5,79.0,71.5,64.0,97,71,37,30.02,29.95,6,1,11,0.00
2012-7-29,95.2,81.3,65.4,71.0,66.8,64.0,98,65,37,30.05,29.92,6,1,8,0.00
2012-7-30,102.6,86.2,75.3,78.0,72.7,68.0,87,66,37,29.95,29.80,8,2,9,0.01
2012-7-31,98.9,85.0,75.0,78.0,75.4,71.0,94,75,49,29.93,29.82,4,1,11,0.01
2012-8-1,100.5,84.0,70.1,77.0,73.7,70.0,100,74,41,29.90,29.81,4,1,10,0.01
2012-8-2,100.9,87.3,76.0,76.0,72.5,68.0,88,64,36,29.88,29.76,5,1,9,0.00
2012-8-3,96.1,84.5,76.2,79.0,75.8,73.0,96,76,50,29.88,29.76,9,2,15,0.48
2012-8-4,96.9,87.1,77.9,80.0,76.7,74.0,92,72,50,29.99,29.84,9,2,11,0.00
2012-8-5,98.9,85.8,77.8,79.0,74.8,72.0,91,71,43,30.08,29.98,7,1,9,0.00
2012-8-6,97.5,84.6,74.0,78.0,72.0,63.0,98,70,32,30.05,29.91,7,1,10,0.00
2012-8-7,98.0,83.6,69.9,75.0,69.0,65.0,95,65,36,29.97,29.87,4,1,8,0.00
2012-8-8,100.5,85.8,69.9,75.0,67.6,58.0,96,60,27,29.96,29.85,5,1,8,0.00
2012-8-9,97.5,84.4,74.4,72.0,70.2,68.0,90,65,38,29.89,29.72,6,1,10,0.00
2012-8-10,91.6,80.3,69.5,72.0,66.5,59.0,97,65,36,29.91,29.74,8,2,11,0.19
2012-8-11,88.6,73.8,59.0,62.0,58.2,56.0,95,62,35,29.99,29.90,6,1,9,0.00
2012-8-12,93.4,76.8,56.3,64.0,58.8,55.0,98,60,30,30.04,29.91,6,1,7,0.00
2012-8-13,90.9,77.9,71.6,74.0,68.9,62.0,97,75,53,29.94,29.80,7,2,14,0.22
2012-8-14,86.1,75.2,64.5,69.0,65.5,63.0,97,74,50,29.97,29.88,9,1,9,0.01
2012-8-15,92.6,79.6,66.8,69.0,66.2,63.0,93,66,38,30.00,29.88,5,1,9,0.00
2012-8-16,99.2,84.6,70.3,75.0,71.1,67.0,94,67,40,29.98,29.81,5,1,10,0.24
2012-8-17,82.3,75.2,70.6,73.0,70.8,69.0,98,87,67,30.01,29.87,5,1,13,0.55
2012-8-18,83.3,74.1,67.4,69.0,64.7,59.0,96,74,45,29.96,29.84,4,1,7,0.00
2012-8-19,88.4,76.5,62.9,66.0,59.1,53.0,96,60,31,29.91,29.84,6,1,9,0.02
2012-8-20,90.4,76.8,64.0,62.0,58.9,54.0,89,57,30,29.95,29.89,5,1,10,0.00
2012-8-21,92.5,73.8,56.5,65.0,58.7,52.0,99,66,28,30.04,29.94,7,0,8,0.00
2012-8-22,95.2,77.2,58.8,66.0,59.6,53.0,99,62,25,30.10,29.99,5,1,8,0.00
2012-8-23,95.7,78.9,61.4,66.0,61.4,57.0,95,60,28,30.10,29.98,6,1,9,0.00
2012-8-24,93.3,79.0,62.6,67.0,63.0,60.0,97,62,34,30.06,29.94,8,1,11,0.00
2012-8-25,74.7,71.9,69.3,72.0,67.6,62.0,95,86,69,30.05,29.95,5,1,8,0.29
2012-8-26,92.0,79.6,69.0,75.0,70.5,68.0,98,76,46,30.10,29.95,5,1,9,0.00
2012-8-27,97.0,82.8,69.8,74.0,71.1,68.0,98,71,41,30.05,29.90,6,1,10,0.00
2012-8-28,94.3,83.0,75.3,75.0,70.8,59.0,90,68,47,29.97,29.85,8,2,13,0.00
2012-8-29,95.7,82.8,70.2,73.0,66.8,60.0,72,59,44,29.91,29.78,6,2,14,0.00
2012-8-30,89.1,80.2,75.5,75.0,72.2,69.0,95,78,55,29.92,29.81,7,2,17,0.15
2012-8-31,92.1,82.7,74.9,77.0,74.7,71.0,91,77,56,29.99,29.89,15,4,18,0.02
2012-9-1,93.4,82.2,71.7,76.0,74.1,69.0,95,78,54,30.02,29.85,10,4,20,1.01
2012-9-2,93.3,81.4,73.1,78.0,74.7,71.0,98,81,57,29.91,29.77,7,2,13,0.00
2012-9-3,95.1,82.7,71.7,77.0,73.6,71.0,99,77,50,29.86,29.79,5,1,11,0.00
2012-9-4,94.9,82.0,71.3,76.0,73.9,71.0,99,79,50,29.88,29.80,4,1,11,0.00
2012-9-5,99.2,82.4,72.4,78.0,74.1,70.0,99,79,47,29.85,29.71,11,2,17,0.50
2012-9-6,96.1,81.3,69.9,80.0,73.7,69.0,98,80,55,29.95,29.82,11,1,13,0.62
2012-9-7,95.2,80.7,69.7,79.0,73.8,69.0,100,81,56,29.91,29.69,4,1,25,0.70
2012-9-8,77.0,70.1,58.4,71.0,61.6,54.0,99,77,46,30.00,29.77,11,2,14,0.37
2012-9-9,86.5,69.5,53.1,64.0,56.9,53.0,100,70,34,30.07,29.97,6,1,7,0.00
2012-9-10,83.0,68.8,53.9,61.0,56.9,53.0,98,70,39,30.16,30.06,4,1,6,0.00
2012-9-11,87.2,71.5,55.1,64.0,58.8,55.0,100,69,35,30.17,30.07,5,1,7,0.00
2012-9-12,85.2,74.0,65.3,66.0,62.0,59.0,86,68,43,30.20,30.09,7,1,10,0.00
2012-9-13,87.9,74.5,65.5,70.0,65.3,61.0,93,74,47,30.21,30.09,4,1,14,0.37
2012-9-14,83.6,73.6,67.3,70.0,67.1,65.0,94,81,62,30.21,30.14,3,0,5,0.00
2012-9-15,84.1,72.7,65.9,69.0,67.0,65.0,96,83,55,30.19,30.07,5,1,8,0.00
2012-9-16,83.0,72.9,68.2,72.0,69.1,67.0,97,88,66,30.07,29.95,4,0,8,0.03
2012-9-17,72.0,69.3,67.0,71.0,68.7,67.0,100,98,93,29.98,29.75,3,0,5,1.24
2012-9-18,72.0,65.5,51.7,68.0,56.4,46.0,100,76,41,30.05,29.74,11,2,14,0.01
2012-9-19,78.2,61.2,45.5,56.0,48.7,44.0,100,70,31,30.18,30.05,2,0,7,0.00
2012-9-20,83.5,63.9,48.1,60.0,53.3,48.0,99,73,38,30.08,29.95,6,1,10,0.00
2012-9-21,83.1,67.1,55.9,65.0,57.7,54.0,95,75,44,30.10,29.86,8,1,14,0.03
2012-9-22,84.7,69.4,56.9,63.0,54.5,45.0,98,65,27,30.13,29.90,4,1,8,0.00
2012-9-23,74.0,61.9,51.0,52.0,43.7,39.0,80,54,29,30.25,30.14,4,1,11,0.00
2012-9-24,75.9,61.1,44.6,54.0,47.9,43.0,96,65,38,30.25,30.02,4,1,8,0.00
2012-9-25,86.6,74.1,62.9,72.0,64.5,52.0,86,73,57,30.05,29.95,9,3,13,0.00
2012-9-26,86.7,76.0,67.1,72.0,66.3,62.0,87,73,54,30.07,29.99,6,2,10,0.00
2012-9-27,88.3,75.7,63.0,70.0,66.0,62.0,97,74,48,30.13,30.00,6,1,7,0.00
2012-9-28,86.1,72.8,66.2,71.0,67.4,65.0,98,84,60,30.07,29.99,5,1,10,0.00
2012-9-29,78.6,70.0,61.9,67.0,60.7,53.0,96,75,45,30.05,29.91,6,1,9,0.00
2012-9-30,65.1,61.7,59.0,62.0,58.6,56.0,97,89,81,29.92,29.73,3,0,9,0.60
2012-10-1,67.4,60.8,57.2,61.0,57.7,55.0,98,90,75,29.72,29.54,10,3,23,0.80
2012-10-2,76.0,61.2,50.5,55.0,52.5,49.0,98,77,40,29.93,29.71,5,1,9,0.00
2012-10-3,78.7,63.3,49.1,61.0,54.7,48.0,97,77,45,30.11,29.93,6,1,11,0.00
2012-10-4,82.7,67.3,54.1,67.0,59.5,54.0,99,79,45,30.23,30.11,3,1,7,0.00
2012-10-5,81.6,67.2,48.7,67.0,60.3,47.0,100,81,55,30.15,29.91,7,2,18,0.57
2012-10-6,58.7,48.7,44.4,46.0,42.5,38.0,94,81,49,30.20,30.10,8,3,13,0.24
2012-10-7,59.0,50.9,43.2,45.0,41.2,37.0,93,71,45,30.25,30.14,5,1,8,0.00
2012-10-8,63.7,52.7,41.5,47.0,43.2,41.0,96,73,47,30.24,30.12,5,0,6,0.01
2012-10-9,68.1,53.8,36.7,51.0,45.3,36.0,100,76,49,30.16,29.98,4,1,8,0.01
2012-10-10,66.2,57.5,43.4,55.0,45.3,35.0,92,68,33,30.23,30.03,7,1,11,0.00
2012-10-11,60.6,54.6,43.8,57.0,48.3,40.0,95,80,65,30.27,30.18,2,0,5,0.09
2012-10-12,75.3,65.6,58.8,67.0,62.7,57.0,99,91,75,30.28,30.15,3,1,7,0.00
2012-10-13,83.8,72.2,63.5,68.0,64.7,63.0,100,79,51,30.18,29.95,11,2,14,0.01
2012-10-14,76.8,69.4,58.0,67.0,63.9,57.0,97,83,70,29.97,29.86,11,4,22,0.25
2012-10-15,78.3,61.6,47.7,58.0,52.3,47.0,100,77,35,30.05,29.94,3,0,7,0.00
2012-10-16,77.2,62.1,50.3,57.0,53.2,49.0,97,75,44,29.97,29.79,5,1,9,0.00
2012-10-17,79.7,67.4,55.3,65.0,58.0,52.0,96,74,55,29.80,29.43,13,4,22,0.90
2012-10-18,72.2,58.7,46.4,59.0,46.8,35.0,100,71,28,29.81,29.66,10,1,15,0.01
2012-10-19,67.7,57.3,48.0,47.0,41.0,37.0,87,56,38,29.87,29.71,12,1,19,0.00
2012-10-20,73.5,55.9,40.5,51.0,45.3,40.0,100,72,35,29.98,29.86,5,0,6,0.00
2012-10-21,81.3,64.7,47.7,55.0,50.3,46.0,95,63,36,30.04,29.93,6,2,12,0.00
2012-10-22,82.4,68.9,58.8,59.0,54.2,50.0,83,62,32,30.12,30.01,8,2,11,0.00
2012-10-23,81.4,68.4,54.8,62.0,56.2,52.0,91,67,43,30.08,29.96,8,2,12,0.00
2012-10-24,83.3,69.2,58.2,68.0,61.2,55.0,92,77,52,30.08,29.96,6,1,12,0.00
2012-10-25,81.5,70.0,60.4,66.0,61.1,57.0,89,75,51,29.99,29.89,8,2,15,0.00
2012-10-26,67.3,48.1,43.3,62.0,45.1,39.0,95,89,79,30.19,29.96,10,4,15,0.38
2012-10-27,55.8,47.4,39.4,40.0,37.5,35.0,84,70,50,30.18,30.08,8,3,15,0.00
2012-10-28,56.7,46.7,36.5,38.0,35.6,34.0,90,68,44,30.18,30.10,7,3,14,0.00
2012-10-29,57.0,45.1,35.1,36.0,32.1,26.0,88,64,34,30.26,30.07,10,2,15,0.00
2012-10-30,61.3,44.5,32.0,36.0,31.4,26.0,93,65,27,30.07,29.90,8,1,12,0.00
2012-10-31,65.3,48.1,34.8,41.0,35.2,29.0,97,67,26,30.00,29.93,4,0,11,0.00
2012-11-1,69.9,49.2,32.9,42.0,37.3,28.0,99,70,29,30.08,29.95,2,0,7,0.00
2012-11-2,76.2,55.7,40.7,52.0,45.7,39.0,97,73,37,30.02,29.93,3,0,7,0.00
2012-11-3,83.4,62.8,45.6,66.0,53.3,42.0,100,74,49,30.10,29.89,11,2,17,0.04
2012-11-4,59.1,48.3,36.8,42.0,39.0,35.0,96,72,41,30.19,30.08,9,1,10,0.00
2012-11-5,53.9,45.2,36.0,46.0,41.1,35.0,96,87,58,30.13,29.98,5,0,7,0.11
2012-11-6,55.8,48.0,42.6,47.0,44.4,41.0,96,88,67,30.08,29.98,3,0,8,0.02
2012-11-7,54.8,44.5,32.4,46.0,39.0,32.0,99,83,53,30.18,29.97,8,1,12,0.01
2012-11-8,61.9,43.4,27.8,44.0,36.0,27.0,100,79,44,30.30,30.15,4,0,5,0.00
2012-11-9,72.1,54.5,36.3,52.0,42.8,35.0,98,68,43,30.23,30.09,6,2,10,0.00
2012-11-10,74.6,62.5,51.0,56.0,50.5,44.0,87,66,42,30.22,30.07,8,2,13,0.00
2012-11-11,74.9,65.5,53.9,62.0,56.7,52.0,97,74,54,30.12,29.94,14,4,19,1.04
2012-11-12,53.6,44.0,30.6,53.0,36.8,27.0,97,78,42,30.47,30.06,6,1,12,0.52
2012-11-13,52.0,38.7,25.6,37.0,28.8,25.0,99,72,39,30.54,30.41,6,1,10,0.00
2012-11-14,50.4,38.4,31.0,36.0,31.5,28.0,97,77,56,30.45,30.32,5,1,8,0.00
2012-11-15,57.1,40.8,26.9,39.0,33.8,26.0,99,79,50,30.39,30.28,4,1,8,0.00
2012-11-16,58.8,42.1,29.1,38.0,33.0,28.0,99,75,38,30.43,30.34,4,0,8,0.00
2012-11-17,63.3,44.0,29.8,39.0,33.7,28.0,95,71,37,30.46,30.35,4,0,6,0.00
2012-11-18,67.2,45.7,28.8,42.0,35.1,28.0,99,72,31,30.40,30.29,5,0,6,0.00
2012-11-19,69.9,49.8,31.7,46.0,39.5,31.0,99,72,37,30.33,30.18,2,0,4,0.00
2012-11-20,73.2,56.8,43.8,53.0,46.9,41.0,97,73,43,30.17,30.05,4,0,8,0.00
2012-11-21,67.4,52.7,39.5,52.0,46.0,39.0,99,80,51,30.26,30.13,5,1,9,0.00
2012-11-22,70.7,51.6,32.9,50.0,42.7,32.0,100,75,43,30.22,30.09,5,1,10,0.00
2012-11-23,60.3,52.5,39.2,54.0,39.3,25.0,97,64,35,30.33,30.12,9,2,14,0.15
2012-11-24,47.2,35.8,26.0,26.0,23.4,22.0,91,63,38,30.39,30.17,4,1,8,0.00
2012-11-25,60.5,43.2,25.4,31.0,27.6,23.0,92,59,30,30.16,30.00,7,2,11,0.00
2012-11-26,52.8,46.9,36.3,51.0,42.8,30.0,98,86,64,30.20,30.03,7,1,14,0.31
2012-11-27,46.7,37.7,26.8,41.0,33.4,26.0,97,85,65,30.39,30.20,8,2,14,0.03
2012-11-28,54.4,35.7,22.8,40.0,29.1,22.0,98,80,40,30.50,30.37,3,0,5,0.00
2012-11-29,61.3,40.9,26.1,36.0,28.6,24.0,97,69,24,30.40,30.24,4,1,8,0.00
2012-11-30,66.5,51.0,34.4,50.0,43.0,31.0,97,75,53,30.28,30.16,7,1,10,0.00
2012-12-1,71.6,61.4,48.3,54.0,49.6,45.0,88,66,51,30.22,30.09,7,3,13,0.00
2012-12-2,69.9,65.2,61.6,62.0,59.9,51.0,90,83,67,30.20,30.10,10,4,15,0.00
2012-12-3,75.4,66.7,60.4,62.0,58.5,56.0,94,76,53,30.15,30.03,9,3,15,0.00
2012-12-4,68.5,62.1,54.1,64.0,58.9,53.0,98,90,78,30.21,30.06,7,2,12,0.21
2012-12-5,64.6,53.7,42.9,53.0,43.0,37.0,94,69,39,30.28,30.09,10,2,14,0.00
2012-12-6,61.8,54.1,41.6,58.0,50.3,37.0,97,86,72,30.09,29.92,4,0,6,0.00
2012-12-7,68.6,60.3,55.9,60.0,57.0,54.0,98,89,71,29.94,29.83,6,1,8,0.02
2012-12-8,61.9,60.7,59.1,62.0,59.5,56.0,99,95,88,29.93,29.85,4,1,8,0.24
2012-12-9,69.7,64.4,58.6,65.0,62.2,58.0,99,93,80,29.89,29.74,10,3,11,1.41
2012-12-10,57.9,41.0,33.6,57.0,36.2,26.0,97,83,70,30.09,29.76,11,3,15,0.25
2012-12-11,44.9,34.2,25.7,30.0,26.2,25.0,96,74,47,30.28,30.08,5,1,7,0.00
2012-12-12,51.2,34.3,21.9,32.0,25.7,21.0,97,75,36,30.38,30.28,4,0,7,0.00
2012-12-13,59.9,38.9,22.7,34.0,26.1,21.0,97,68,22,30.41,30.27,4,0,5,0.00
2012-12-14,60.8,44.2,25.2,46.0,33.3,24.0,95,70,36,30.31,30.06,6,1,10,0.01
2012-12-15,62.8,56.7,49.1,60.0,53.5,46.0,95,89,81,30.09,29.80,11,4,19,0.24
2012-12-16,62.6,60.6,58.2,61.0,59.1,57.0,100,95,91,29.82,29.69,9,2,10,0.01
2012-12-17,64.7,52.7,34.7,58.0,48.8,34.0,98,87,57,29.85,29.62,9,2,14,0.01
2012-12-18,63.6,43.3,28.8,46.0,37.0,28.0,100,82,42,29.93,29.82,7,1,13,0.01
2012-12-19,70.8,55.5,37.4,54.0,45.6,36.0,98,72,47,29.96,29.68,9,2,15,0.00
2012-12-20,63.9,48.7,35.9,61.0,38.3,21.0,95,68,49,30.13,29.48,15,5,22,0.37
2012-12-21,46.6,36.0,24.6,22.0,19.3,14.0,86,54,28,30.33,30.13,7,2,14,0.00
2012-12-22,61.8,41.2,20.8,32.0,24.6,19.0,97,58,23,30.36,30.10,6,2,9,0.00
2012-12-23,55.9,50.3,46.1,55.0,43.5,29.0,98,79,49,30.09,29.81,5,2,10,0.02
2012-12-24,55.7,52.0,39.7,55.0,49.8,35.0,100,92,80,29.99,29.76,3,1,9,0.03
2012-12-25,38.3,35.5,32.7,35.0,33.0,30.0,96,91,80,30.03,29.53,12,4,23,0.70
2012-12-26,34.1,31.8,30.1,33.0,29.5,27.0,97,91,83,30.20,29.54,12,3,17,0.05
2012-12-27,40.5,32.1,23.5,32.0,28.6,23.0,98,87,70,30.22,30.06,4,0,5,0.12
2012-12-28,40.5,36.3,31.6,40.0,35.2,29.0,98,96,90,30.09,29.79,4,1,10,0.47
2012-12-29,35.4,31.7,21.8,34.0,27.6,21.0,97,85,72,30.43,29.94,7,2,14,0.00
2012-12-30,43.7,30.5,18.1,31.0,24.4,17.0,97,80,52,30.56,30.35,2,0,6,0.00
2012-12-31,46.1,39.5,31.9,40.0,33.3,29.0,97,79,55,30.34,30.01,6,1,9,0.40
2013-1-1,41.2,38.1,29.7,41.0,36.9,27.0,98,95,90,30.22,30.01,6,1,11,0.14